sensor_id;sensor_type;location;lat;lon;timestamp;temperature;humidity
41547;DHT22;27271;45.412;10.852;2023-03-01T00:01:33;2.30;1.00
41547;DHT22;27271;45.412;10.852;2023-03-01T00:04:55;2.20;1.00
41547;DHT22;27271;45.412;10.852;2023-03-01T00:08:17;2.20;1.00
41547;DHT22;27271;45.412;10.852;2023-03-01T00:11:39;2.20;1.00
41547;DHT22;27271;45.412;10.852;2023-03-01T00:15:01;2.10;1.00
41547;DHT22;27271;45.412;10.852;2023-03-01T00:18:23;2.00;1.00
41547;DHT22;27271;45.412;10.852;2023-03-01T00:21:46;2.00;1.00
41547;DHT22;27271;45.412;10.852;2023-03-01T00:25:08;1.90;1.00
41547;DHT22;27271;45.412;10.852;2023-03-01T00:28:30;1.80;1.00
41547;DHT22;27271;45.412;10.852;2023-03-01T00:31:52;1.70;1.00
41547;DHT22;27271;45.412;10.852;2023-03-01T00:35:15;1.60;1.00
41547;DHT22;27271;45.412;10.852;2023-03-01T00:38:39;1.50;58.50
41547;DHT22;27271;45.412;10.852;2023-03-01T00:42:01;1.40;99.90
41547;DHT22;27271;45.412;10.852;2023-03-01T00:45:24;1.30;99.90
41547;DHT22;27271;45.412;10.852;2023-03-01T00:48:46;1.20;99.90
41547;DHT22;27271;45.412;10.852;2023-03-01T00:52:09;1.10;99.90
41547;DHT22;27271;45.412;10.852;2023-03-01T00:55:31;1.00;99.90
41547;DHT22;27271;45.412;10.852;2023-03-01T00:58:53;0.80;99.90
41547;DHT22;27271;45.412;10.852;2023-03-01T01:02:15;0.80;1.00
41547;DHT22;27271;45.412;10.852;2023-03-01T01:05:38;0.60;1.00
41547;DHT22;27271;45.412;10.852;2023-03-01T01:09:01;0.50;1.00
41547;DHT22;27271;45.412;10.852;2023-03-01T01:12:24;0.50;99.90
41547;DHT22;27271;45.412;10.852;2023-03-01T01:15:45;0.40;49.60
41547;DHT22;27271;45.412;10.852;2023-03-01T01:19:08;0.30;81.40
41547;DHT22;27271;45.412;10.852;2023-03-01T01:22:30;0.20;99.90
41547;DHT22;27271;45.412;10.852;2023-03-01T01:25:52;0.20;99.90
41547;DHT22;27271;45.412;10.852;2023-03-01T01:29:14;0.10;99.90
41547;DHT22;27271;45.412;10.852;2023-03-01T01:32:36;0.10;99.90
41547;DHT22;27271;45.412;10.852;2023-03-01T01:35:58;0.00;99.90
41547;DHT22;27271;45.412;10.852;2023-03-01T01:39:21;0.00;99.90
41547;DHT22;27271;45.412;10.852;2023-03-01T01:42:44;-0.10;99.90
41547;DHT22;27271;45.412;10.852;2023-03-01T01:46:31;-0.10;99.90
41547;DHT22;27271;45.412;10.852;2023-03-01T01:49:56;-0.20;99.90
41547;DHT22;27271;45.412;10.852;2023-03-01T01:53:19;-0.20;99.90
41547;DHT22;27271;45.412;10.852;2023-03-01T01:56:45;-0.20;99.90
41547;DHT22;27271;45.412;10.852;2023-03-01T02:00:22;-0.30;99.90
41547;DHT22;27271;45.412;10.852;2023-03-01T02:03:46;-0.40;99.90
41547;DHT22;27271;45.412;10.852;2023-03-01T02:07:19;-0.40;99.90
41547;DHT22;27271;45.412;10.852;2023-03-01T02:10:42;-0.40;99.90
41547;DHT22;27271;45.412;10.852;2023-03-01T02:14:05;-0.30;99.90
41547;DHT22;27271;45.412;10.852;2023-03-01T02:17:27;-0.40;99.90
41547;DHT22;27271;45.412;10.852;2023-03-01T02:31:47;-0.60;1.00
41547;DHT22;27271;45.412;10.852;2023-03-01T02:35:13;-0.50;1.00
41547;DHT22;27271;45.412;10.852;2023-03-01T02:38:35;-0.50;1.00
41547;DHT22;27271;45.412;10.852;2023-03-01T02:41:58;-0.50;1.00
41547;DHT22;27271;45.412;10.852;2023-03-01T02:45:22;-0.60;1.00
41547;DHT22;27271;45.412;10.852;2023-03-01T02:48:56;-0.60;1.00
41547;DHT22;27271;45.412;10.852;2023-03-01T02:52:43;-0.60;1.00
41547;DHT22;27271;45.412;10.852;2023-03-01T02:56:06;-0.60;1.00
41547;DHT22;27271;45.412;10.852;2023-03-01T02:59:36;-0.50;1.00
41547;DHT22;27271;45.412;10.852;2023-03-01T03:03:02;-0.40;1.00
41547;DHT22;27271;45.412;10.852;2023-03-01T03:06:25;-0.40;1.00
41547;DHT22;27271;45.412;10.852;2023-03-01T03:09:48;-0.30;1.00
41547;DHT22;27271;45.412;10.852;2023-03-01T03:13:12;-0.20;1.00
41547;DHT22;27271;45.412;10.852;2023-03-01T03:16:36;-0.10;1.00
41547;DHT22;27271;45.412;10.852;2023-03-01T03:19:58;0.00;1.00
41547;DHT22;27271;45.412;10.852;2023-03-01T03:23:21;0.00;1.00
41547;DHT22;27271;45.412;10.852;2023-03-01T03:26:43;0.10;1.00
41547;DHT22;27271;45.412;10.852;2023-03-01T03:30:08;0.20;1.00
41547;DHT22;27271;45.412;10.852;2023-03-01T03:33:31;0.20;1.00
41547;DHT22;27271;45.412;10.852;2023-03-01T03:36:57;0.30;1.00
41547;DHT22;27271;45.412;10.852;2023-03-01T03:40:21;0.30;1.00
41547;DHT22;27271;45.412;10.852;2023-03-01T03:43:43;0.40;1.00
41547;DHT22;27271;45.412;10.852;2023-03-01T03:47:05;0.40;99.90
41547;DHT22;27271;45.412;10.852;2023-03-01T03:50:27;0.50;99.90
41547;DHT22;27271;45.412;10.852;2023-03-01T03:53:49;0.60;99.90
41547;DHT22;27271;45.412;10.852;2023-03-01T03:57:11;0.70;99.90
41547;DHT22;27271;45.412;10.852;2023-03-01T04:00:39;0.80;99.90
41547;DHT22;27271;45.412;10.852;2023-03-01T04:04:02;0.80;99.90
41547;DHT22;27271;45.412;10.852;2023-03-01T04:07:25;0.90;99.90
41547;DHT22;27271;45.412;10.852;2023-03-01T04:10:52;1.10;33.80
41547;DHT22;27271;45.412;10.852;2023-03-01T04:14:17;1.20;1.00
41547;DHT22;27271;45.412;10.852;2023-03-01T04:17:40;1.30;1.00
41547;DHT22;27271;45.412;10.852;2023-03-01T04:21:03;1.40;1.00
41547;DHT22;27271;45.412;10.852;2023-03-01T04:24:25;1.60;99.90
41547;DHT22;27271;45.412;10.852;2023-03-01T04:27:47;1.80;99.90
41547;DHT22;27271;45.412;10.852;2023-03-01T04:31:12;1.80;99.90
41547;DHT22;27271;45.412;10.852;2023-03-01T04:34:35;1.90;1.00
41547;DHT22;27271;45.412;10.852;2023-03-01T04:37:57;2.00;1.00
41547;DHT22;27271;45.412;10.852;2023-03-01T04:41:21;2.00;1.00
41547;DHT22;27271;45.412;10.852;2023-03-01T04:44:45;2.10;99.90
41547;DHT22;27271;45.412;10.852;2023-03-01T04:48:07;2.00;1.00
41547;DHT22;27271;45.412;10.852;2023-03-01T04:51:29;2.10;99.90
41547;DHT22;27271;45.412;10.852;2023-03-01T04:54:51;2.00;1.00
41547;DHT22;27271;45.412;10.852;2023-03-01T04:58:13;2.10;1.00
41547;DHT22;27271;45.412;10.852;2023-03-01T05:01:35;2.00;1.00
41547;DHT22;27271;45.412;10.852;2023-03-01T05:04:58;2.00;41.80
41547;DHT22;27271;45.412;10.852;2023-03-01T05:08:20;2.00;1.70
41547;DHT22;27271;45.412;10.852;2023-03-01T05:11:42;2.00;99.90
41547;DHT22;27271;45.412;10.852;2023-03-01T05:15:05;2.00;99.90
41547;DHT22;27271;45.412;10.852;2023-03-01T05:18:31;2.00;99.90
41547;DHT22;27271;45.412;10.852;2023-03-01T05:21:53;2.00;62.40
41547;DHT22;27271;45.412;10.852;2023-03-01T05:25:27;1.90;99.90
41547;DHT22;27271;45.412;10.852;2023-03-01T05:28:55;1.90;99.90
41547;DHT22;27271;45.412;10.852;2023-03-01T05:32:21;1.90;99.90
41547;DHT22;27271;45.412;10.852;2023-03-01T05:35:44;1.90;99.90
41547;DHT22;27271;45.412;10.852;2023-03-01T05:39:06;1.90;99.90
41547;DHT22;27271;45.412;10.852;2023-03-01T05:42:28;1.90;99.90
41547;DHT22;27271;45.412;10.852;2023-03-01T05:45:50;1.90;1.00
41547;DHT22;27271;45.412;10.852;2023-03-01T05:49:13;1.90;1.00
41547;DHT22;27271;45.412;10.852;2023-03-01T05:52:36;2.00;1.00
41547;DHT22;27271;45.412;10.852;2023-03-01T05:55:58;2.10;1.00
41547;DHT22;27271;45.412;10.852;2023-03-01T05:59:19;2.10;99.90
41547;DHT22;27271;45.412;10.852;2023-03-01T06:02:42;2.10;99.90
41547;DHT22;27271;45.412;10.852;2023-03-01T06:06:04;2.20;99.90
41547;DHT22;27271;45.412;10.852;2023-03-01T06:09:26;2.20;99.90
41547;DHT22;27271;45.412;10.852;2023-03-01T06:12:48;2.20;99.90
41547;DHT22;27271;45.412;10.852;2023-03-01T06:16:11;2.30;99.90
41547;DHT22;27271;45.412;10.852;2023-03-01T06:19:33;2.30;99.90
41547;DHT22;27271;45.412;10.852;2023-03-01T06:22:56;2.30;99.90
41547;DHT22;27271;45.412;10.852;2023-03-01T06:26:18;2.40;99.90
41547;DHT22;27271;45.412;10.852;2023-03-01T06:29:40;2.50;99.90
41547;DHT22;27271;45.412;10.852;2023-03-01T06:33:03;2.60;1.00
41547;DHT22;27271;45.412;10.852;2023-03-01T06:36:25;2.70;1.00
41547;DHT22;27271;45.412;10.852;2023-03-01T06:39:47;2.80;1.00
41547;DHT22;27271;45.412;10.852;2023-03-01T06:43:09;3.10;1.00
41547;DHT22;27271;45.412;10.852;2023-03-01T06:46:32;3.40;99.90
41547;DHT22;27271;45.412;10.852;2023-03-01T06:49:55;3.60;99.90
41547;DHT22;27271;45.412;10.852;2023-03-01T06:53:17;3.90;99.90
41547;DHT22;27271;45.412;10.852;2023-03-01T06:56:39;4.10;99.90
41547;DHT22;27271;45.412;10.852;2023-03-01T07:00:02;4.20;99.90
41547;DHT22;27271;45.412;10.852;2023-03-01T07:03:24;4.40;99.90
41547;DHT22;27271;45.412;10.852;2023-03-01T07:06:46;4.40;99.90
41547;DHT22;27271;45.412;10.852;2023-03-01T07:10:16;4.60;99.90
41547;DHT22;27271;45.412;10.852;2023-03-01T07:13:38;4.80;95.60
41547;DHT22;27271;45.412;10.852;2023-03-01T07:17:00;4.90;71.80
41547;DHT22;27271;45.412;10.852;2023-03-01T07:20:22;5.10;70.00
41547;DHT22;27271;45.412;10.852;2023-03-01T07:23:49;5.30;44.60
41547;DHT22;27271;45.412;10.852;2023-03-01T07:27:11;5.70;26.90
41547;DHT22;27271;45.412;10.852;2023-03-01T07:30:33;6.10;3.00
41547;DHT22;27271;45.412;10.852;2023-03-01T07:33:56;6.80;1.00
41547;DHT22;27271;45.412;10.852;2023-03-01T07:37:18;7.30;1.00
41547;DHT22;27271;45.412;10.852;2023-03-01T07:40:40;7.60;1.00
41547;DHT22;27271;45.412;10.852;2023-03-01T07:44:03;7.80;1.00
41547;DHT22;27271;45.412;10.852;2023-03-01T07:47:25;7.80;1.00
41547;DHT22;27271;45.412;10.852;2023-03-01T07:50:47;7.90;1.00
41547;DHT22;27271;45.412;10.852;2023-03-01T07:54:09;7.70;1.00
41547;DHT22;27271;45.412;10.852;2023-03-01T07:57:31;7.80;1.00
41547;DHT22;27271;45.412;10.852;2023-03-01T08:00:53;7.60;1.00
41547;DHT22;27271;45.412;10.852;2023-03-01T08:04:15;7.50;1.00
41547;DHT22;27271;45.412;10.852;2023-03-01T08:07:37;7.70;1.00
41547;DHT22;27271;45.412;10.852;2023-03-01T08:11:00;7.70;1.00
41547;DHT22;27271;45.412;10.852;2023-03-01T08:14:23;7.60;1.00
41547;DHT22;27271;45.412;10.852;2023-03-01T08:17:45;7.80;1.00
41547;DHT22;27271;45.412;10.852;2023-03-01T08:21:09;7.80;1.00
41547;DHT22;27271;45.412;10.852;2023-03-01T08:24:32;8.30;1.00
41547;DHT22;27271;45.412;10.852;2023-03-01T08:27:54;8.40;1.00
41547;DHT22;27271;45.412;10.852;2023-03-01T08:31:22;9.00;1.00
41547;DHT22;27271;45.412;10.852;2023-03-01T08:34:47;9.30;1.00
41547;DHT22;27271;45.412;10.852;2023-03-01T08:38:09;9.60;1.00
41547;DHT22;27271;45.412;10.852;2023-03-01T08:41:31;9.30;1.00
41547;DHT22;27271;45.412;10.852;2023-03-01T08:44:53;9.00;1.00
41547;DHT22;27271;45.412;10.852;2023-03-01T08:48:15;9.00;1.00
41547;DHT22;27271;45.412;10.852;2023-03-01T08:51:37;8.60;1.00
41547;DHT22;27271;45.412;10.852;2023-03-01T08:54:59;8.30;1.00
41547;DHT22;27271;45.412;10.852;2023-03-01T08:58:26;8.00;1.00
41547;DHT22;27271;45.412;10.852;2023-03-01T09:01:48;7.70;1.00
41547;DHT22;27271;45.412;10.852;2023-03-01T09:05:10;7.50;1.00
41547;DHT22;27271;45.412;10.852;2023-03-01T09:08:37;7.40;1.00
41547;DHT22;27271;45.412;10.852;2023-03-01T09:12:00;7.50;1.00
41547;DHT22;27271;45.412;10.852;2023-03-01T09:15:21;7.50;1.00
41547;DHT22;27271;45.412;10.852;2023-03-01T09:18:44;7.70;1.00
41547;DHT22;27271;45.412;10.852;2023-03-01T09:22:07;7.80;1.00
41547;DHT22;27271;45.412;10.852;2023-03-01T09:25:34;7.80;1.00
41547;DHT22;27271;45.412;10.852;2023-03-01T09:28:56;7.60;1.00
41547;DHT22;27271;45.412;10.852;2023-03-01T09:32:19;7.60;1.00
41547;DHT22;27271;45.412;10.852;2023-03-01T09:35:41;7.50;1.00
41547;DHT22;27271;45.412;10.852;2023-03-01T09:39:07;7.50;1.00
41547;DHT22;27271;45.412;10.852;2023-03-01T09:42:34;7.50;1.00
41547;DHT22;27271;45.412;10.852;2023-03-01T09:46:05;7.60;1.00
41547;DHT22;27271;45.412;10.852;2023-03-01T09:49:33;7.50;1.00
41547;DHT22;27271;45.412;10.852;2023-03-01T09:53:06;7.30;1.00
41547;DHT22;27271;45.412;10.852;2023-03-01T09:56:39;7.40;1.00
41547;DHT22;27271;45.412;10.852;2023-03-01T10:00:19;7.50;1.00
41547;DHT22;27271;45.412;10.852;2023-03-01T10:04:04;7.60;1.00
41547;DHT22;27271;45.412;10.852;2023-03-01T10:07:45;7.80;1.00
41547;DHT22;27271;45.412;10.852;2023-03-01T10:11:25;8.00;1.00
41547;DHT22;27271;45.412;10.852;2023-03-01T10:14:53;7.90;1.00
41547;DHT22;27271;45.412;10.852;2023-03-01T10:18:22;7.80;1.00
41547;DHT22;27271;45.412;10.852;2023-03-01T10:21:46;7.70;1.00
41547;DHT22;27271;45.412;10.852;2023-03-01T10:25:13;7.50;1.00
41547;DHT22;27271;45.412;10.852;2023-03-01T10:32:09;7.80;1.00
41547;DHT22;27271;45.412;10.852;2023-03-01T10:35:33;8.20;1.00
41547;DHT22;27271;45.412;10.852;2023-03-01T10:38:57;8.50;1.00
41547;DHT22;27271;45.412;10.852;2023-03-01T10:42:25;8.50;1.00
41547;DHT22;27271;45.412;10.852;2023-03-01T10:45:48;8.70;1.00
41547;DHT22;27271;45.412;10.852;2023-03-01T10:49:23;8.90;1.00
41547;DHT22;27271;45.412;10.852;2023-03-01T10:53:02;9.00;1.00
41547;DHT22;27271;45.412;10.852;2023-03-01T10:56:24;9.30;1.00
41547;DHT22;27271;45.412;10.852;2023-03-01T11:00:01;9.50;1.00
41547;DHT22;27271;45.412;10.852;2023-03-01T11:03:33;9.60;1.00
41547;DHT22;27271;45.412;10.852;2023-03-01T11:07:00;9.60;1.00
41547;DHT22;27271;45.412;10.852;2023-03-01T11:10:26;9.80;1.00
41547;DHT22;27271;45.412;10.852;2023-03-01T11:17:30;9.90;1.00
41547;DHT22;27271;45.412;10.852;2023-03-01T11:21:16;10.10;1.00
41547;DHT22;27271;45.412;10.852;2023-03-01T11:24:47;10.40;1.00
41547;DHT22;27271;45.412;10.852;2023-03-01T11:28:25;11.00;1.00
41547;DHT22;27271;45.412;10.852;2023-03-01T11:31:49;11.20;1.00
41547;DHT22;27271;45.412;10.852;2023-03-01T11:35:22;11.20;1.00
41547;DHT22;27271;45.412;10.852;2023-03-01T11:38:46;11.10;1.00
41547;DHT22;27271;45.412;10.852;2023-03-01T11:42:17;10.50;1.00
41547;DHT22;27271;45.412;10.852;2023-03-01T11:46:00;10.40;1.00
41547;DHT22;27271;45.412;10.852;2023-03-01T12:12:23;9.90;1.00
41547;DHT22;27271;45.412;10.852;2023-03-01T12:27:28;9.80;1.00
41547;DHT22;27271;45.412;10.852;2023-03-01T12:31:01;9.90;1.00
41547;DHT22;27271;45.412;10.852;2023-03-01T12:38:44;9.90;1.00
41547;DHT22;27271;45.412;10.852;2023-03-01T12:46:25;9.30;1.00
41547;DHT22;27271;45.412;10.852;2023-03-01T12:49:56;9.30;1.00
41547;DHT22;27271;45.412;10.852;2023-03-01T12:53:23;9.30;1.00
41547;DHT22;27271;45.412;10.852;2023-03-01T12:56:46;9.30;1.00
41547;DHT22;27271;45.412;10.852;2023-03-01T13:00:39;9.20;1.00
41547;DHT22;27271;45.412;10.852;2023-03-01T13:08:23;9.10;1.00
41547;DHT22;27271;45.412;10.852;2023-03-01T13:11:49;9.20;1.00
41547;DHT22;27271;45.412;10.852;2023-03-01T13:15:24;9.20;1.00
41547;DHT22;27271;45.412;10.852;2023-03-01T13:18:47;9.40;1.00
41547;DHT22;27271;45.412;10.852;2023-03-01T13:22:47;9.40;1.00
41547;DHT22;27271;45.412;10.852;2023-03-01T13:26:17;9.50;1.00
41547;DHT22;27271;45.412;10.852;2023-03-01T13:29:53;9.50;1.00
41547;DHT22;27271;45.412;10.852;2023-03-01T13:36:50;9.20;1.00
41547;DHT22;27271;45.412;10.852;2023-03-01T13:43:44;9.30;1.00
41547;DHT22;27271;45.412;10.852;2023-03-01T13:50:43;9.40;1.00
41547;DHT22;27271;45.412;10.852;2023-03-01T13:54:11;9.40;1.00
41547;DHT22;27271;45.412;10.852;2023-03-01T13:57:38;9.50;1.00
41547;DHT22;27271;45.412;10.852;2023-03-01T14:01:03;9.10;1.00
41547;DHT22;27271;45.412;10.852;2023-03-01T14:04:27;8.90;1.00
41547;DHT22;27271;45.412;10.852;2023-03-01T14:07:51;8.90;1.00
41547;DHT22;27271;45.412;10.852;2023-03-01T14:15:42;8.90;1.00
41547;DHT22;27271;45.412;10.852;2023-03-01T14:19:21;8.80;1.00
41547;DHT22;27271;45.412;10.852;2023-03-01T14:23:01;8.90;1.00
41547;DHT22;27271;45.412;10.852;2023-03-01T14:26:24;8.80;1.00
41547;DHT22;27271;45.412;10.852;2023-03-01T14:30:09;8.60;1.00
41547;DHT22;27271;45.412;10.852;2023-03-01T14:33:34;8.40;1.00
41547;DHT22;27271;45.412;10.852;2023-03-01T14:40:43;7.80;1.00
41547;DHT22;27271;45.412;10.852;2023-03-01T14:44:11;7.50;44.20
41547;DHT22;27271;45.412;10.852;2023-03-01T14:47:35;7.20;99.90
41547;DHT22;27271;45.412;10.852;2023-03-01T14:50:59;7.00;29.40
41547;DHT22;27271;45.412;10.852;2023-03-01T14:54:29;6.80;99.90
41547;DHT22;27271;45.412;10.852;2023-03-01T14:57:57;6.70;1.00
41547;DHT22;27271;45.412;10.852;2023-03-01T15:01:21;6.60;99.90
41547;DHT22;27271;45.412;10.852;2023-03-01T15:04:47;6.50;1.00
41547;DHT22;27271;45.412;10.852;2023-03-01T15:08:28;6.50;1.00
41547;DHT22;27271;45.412;10.852;2023-03-01T15:11:55;6.40;1.00
41547;DHT22;27271;45.412;10.852;2023-03-01T15:15:38;6.30;99.90
41547;DHT22;27271;45.412;10.852;2023-03-01T15:19:05;6.30;99.90
41547;DHT22;27271;45.412;10.852;2023-03-01T15:22:28;6.20;99.90
41547;DHT22;27271;45.412;10.852;2023-03-01T15:25:52;6.20;99.90
41547;DHT22;27271;45.412;10.852;2023-03-01T15:29:21;6.10;99.90
41547;DHT22;27271;45.412;10.852;2023-03-01T15:32:44;6.10;99.90
41547;DHT22;27271;45.412;10.852;2023-03-01T15:39:57;6.00;1.00
41547;DHT22;27271;45.412;10.852;2023-03-01T15:43:44;6.00;1.00
41547;DHT22;27271;45.412;10.852;2023-03-01T15:47:25;5.90;1.00
41547;DHT22;27271;45.412;10.852;2023-03-01T15:50:55;5.80;1.00
41547;DHT22;27271;45.412;10.852;2023-03-01T15:54:20;5.70;1.00
41547;DHT22;27271;45.412;10.852;2023-03-01T15:57:42;5.80;44.40
41547;DHT22;27271;45.412;10.852;2023-03-01T16:01:13;5.70;90.10
41547;DHT22;27271;45.412;10.852;2023-03-01T16:04:36;5.70;99.90
41547;DHT22;27271;45.412;10.852;2023-03-01T16:07:58;5.60;99.90
41547;DHT22;27271;45.412;10.852;2023-03-01T16:11:21;5.60;54.80
41547;DHT22;27271;45.412;10.852;2023-03-01T16:14:43;5.60;52.90
41547;DHT22;27271;45.412;10.852;2023-03-01T16:18:06;5.50;48.20
41547;DHT22;27271;45.412;10.852;2023-03-01T16:21:29;5.40;52.50
41547;DHT22;27271;45.412;10.852;2023-03-01T16:24:52;5.30;51.00
41547;DHT22;27271;45.412;10.852;2023-03-01T16:28:14;5.30;93.20
41547;DHT22;27271;45.412;10.852;2023-03-01T16:31:36;5.20;74.00
41547;DHT22;27271;45.412;10.852;2023-03-01T16:34:58;5.10;95.00
41547;DHT22;27271;45.412;10.852;2023-03-01T16:38:20;5.10;99.90
41547;DHT22;27271;45.412;10.852;2023-03-01T16:41:43;5.00;99.90
41547;DHT22;27271;45.412;10.852;2023-03-01T16:45:06;5.00;99.90
41547;DHT22;27271;45.412;10.852;2023-03-01T16:48:45;5.00;99.90
41547;DHT22;27271;45.412;10.852;2023-03-01T16:52:07;5.00;99.90
41547;DHT22;27271;45.412;10.852;2023-03-01T16:55:29;5.00;99.90
41547;DHT22;27271;45.412;10.852;2023-03-01T16:58:51;4.90;99.90
41547;DHT22;27271;45.412;10.852;2023-03-01T17:02:13;4.90;99.90
41547;DHT22;27271;45.412;10.852;2023-03-01T17:05:40;4.80;99.90
41547;DHT22;27271;45.412;10.852;2023-03-01T17:09:03;4.80;99.90
41547;DHT22;27271;45.412;10.852;2023-03-01T17:12:25;4.80;99.90
41547;DHT22;27271;45.412;10.852;2023-03-01T17:15:47;4.80;99.90
41547;DHT22;27271;45.412;10.852;2023-03-01T17:19:10;4.80;99.90
41547;DHT22;27271;45.412;10.852;2023-03-01T17:22:32;4.80;99.90
41547;DHT22;27271;45.412;10.852;2023-03-01T17:25:55;4.80;99.90
41547;DHT22;27271;45.412;10.852;2023-03-01T17:29:17;4.80;99.90
41547;DHT22;27271;45.412;10.852;2023-03-01T17:32:40;4.70;99.90
41547;DHT22;27271;45.412;10.852;2023-03-01T17:36:02;4.70;99.90
41547;DHT22;27271;45.412;10.852;2023-03-01T17:39:25;4.80;99.90
41547;DHT22;27271;45.412;10.852;2023-03-01T17:42:52;4.70;99.90
41547;DHT22;27271;45.412;10.852;2023-03-01T17:46:14;4.70;99.90
41547;DHT22;27271;45.412;10.852;2023-03-01T17:49:36;4.70;99.90
41547;DHT22;27271;45.412;10.852;2023-03-01T17:52:59;4.70;99.90
41547;DHT22;27271;45.412;10.852;2023-03-01T17:56:21;4.70;99.90
41547;DHT22;27271;45.412;10.852;2023-03-01T17:59:43;4.70;99.90
41547;DHT22;27271;45.412;10.852;2023-03-01T18:03:06;4.70;99.90
41547;DHT22;27271;45.412;10.852;2023-03-01T18:06:28;4.70;99.90
41547;DHT22;27271;45.412;10.852;2023-03-01T18:09:51;4.70;99.90
41547;DHT22;27271;45.412;10.852;2023-03-01T18:13:13;4.70;99.90
41547;DHT22;27271;45.412;10.852;2023-03-01T18:16:35;4.70;99.90
41547;DHT22;27271;45.412;10.852;2023-03-01T18:20:00;4.80;99.90
41547;DHT22;27271;45.412;10.852;2023-03-01T18:23:22;4.70;99.90
41547;DHT22;27271;45.412;10.852;2023-03-01T18:26:45;4.70;99.90
41547;DHT22;27271;45.412;10.852;2023-03-01T18:30:07;4.70;99.90
41547;DHT22;27271;45.412;10.852;2023-03-01T18:33:31;4.70;99.90
41547;DHT22;27271;45.412;10.852;2023-03-01T18:36:53;4.70;99.90
41547;DHT22;27271;45.412;10.852;2023-03-01T18:40:30;4.70;99.90
41547;DHT22;27271;45.412;10.852;2023-03-01T18:43:55;4.70;99.90
41547;DHT22;27271;45.412;10.852;2023-03-01T18:47:18;4.70;99.90
41547;DHT22;27271;45.412;10.852;2023-03-01T18:50:41;4.70;99.90
41547;DHT22;27271;45.412;10.852;2023-03-01T18:54:03;4.60;99.90
41547;DHT22;27271;45.412;10.852;2023-03-01T18:57:25;4.60;99.90
41547;DHT22;27271;45.412;10.852;2023-03-01T19:00:48;4.60;99.90
41547;DHT22;27271;45.412;10.852;2023-03-01T19:04:10;4.60;99.90
41547;DHT22;27271;45.412;10.852;2023-03-01T19:07:32;4.60;99.90
41547;DHT22;27271;45.412;10.852;2023-03-01T19:11:00;4.60;99.90
41547;DHT22;27271;45.412;10.852;2023-03-01T19:14:24;4.60;99.90
41547;DHT22;27271;45.412;10.852;2023-03-01T19:17:46;4.70;99.90
41547;DHT22;27271;45.412;10.852;2023-03-01T19:21:09;4.70;99.90
41547;DHT22;27271;45.412;10.852;2023-03-01T19:24:33;4.70;99.90
41547;DHT22;27271;45.412;10.852;2023-03-01T19:27:55;4.80;99.90
41547;DHT22;27271;45.412;10.852;2023-03-01T19:31:19;4.80;99.90
41547;DHT22;27271;45.412;10.852;2023-03-01T19:34:41;4.80;99.90
41547;DHT22;27271;45.412;10.852;2023-03-01T19:38:03;4.80;99.90
41547;DHT22;27271;45.412;10.852;2023-03-01T19:41:26;4.80;99.90
41547;DHT22;27271;45.412;10.852;2023-03-01T19:44:48;4.80;99.90
41547;DHT22;27271;45.412;10.852;2023-03-01T19:48:10;4.80;99.90
41547;DHT22;27271;45.412;10.852;2023-03-01T19:51:33;4.80;99.90
41547;DHT22;27271;45.412;10.852;2023-03-01T19:54:57;4.90;99.90
41547;DHT22;27271;45.412;10.852;2023-03-01T19:58:32;4.90;99.90
41547;DHT22;27271;45.412;10.852;2023-03-01T20:01:56;5.00;99.90
41547;DHT22;27271;45.412;10.852;2023-03-01T20:05:20;5.10;99.90
41547;DHT22;27271;45.412;10.852;2023-03-01T20:08:48;5.10;99.90
41547;DHT22;27271;45.412;10.852;2023-03-01T20:12:13;5.10;99.90
41547;DHT22;27271;45.412;10.852;2023-03-01T20:15:40;5.10;99.90
41547;DHT22;27271;45.412;10.852;2023-03-01T20:19:06;5.20;99.80
41547;DHT22;27271;45.412;10.852;2023-03-01T20:22:41;5.20;99.90
41547;DHT22;27271;45.412;10.852;2023-03-01T20:26:08;5.10;99.90
41547;DHT22;27271;45.412;10.852;2023-03-01T20:29:32;5.10;99.90
41547;DHT22;27271;45.412;10.852;2023-03-01T20:32:56;5.10;99.90
41547;DHT22;27271;45.412;10.852;2023-03-01T20:36:18;5.10;99.90
41547;DHT22;27271;45.412;10.852;2023-03-01T20:39:40;5.10;99.90
41547;DHT22;27271;45.412;10.852;2023-03-01T20:43:02;5.10;99.90
41547;DHT22;27271;45.412;10.852;2023-03-01T20:46:25;5.00;99.90
41547;DHT22;27271;45.412;10.852;2023-03-01T20:49:50;5.00;99.90
41547;DHT22;27271;45.412;10.852;2023-03-01T20:53:12;5.00;99.90
41547;DHT22;27271;45.412;10.852;2023-03-01T20:56:35;5.00;99.90
41547;DHT22;27271;45.412;10.852;2023-03-01T20:59:58;5.10;99.90
41547;DHT22;27271;45.412;10.852;2023-03-01T21:03:20;5.20;99.90
41547;DHT22;27271;45.412;10.852;2023-03-01T21:06:43;5.30;99.90
41547;DHT22;27271;45.412;10.852;2023-03-01T21:10:05;5.30;99.90
41547;DHT22;27271;45.412;10.852;2023-03-01T21:13:28;5.40;99.90
41547;DHT22;27271;45.412;10.852;2023-03-01T21:16:50;5.40;99.90
41547;DHT22;27271;45.412;10.852;2023-03-01T21:20:13;5.40;99.90
41547;DHT22;27271;45.412;10.852;2023-03-01T21:23:36;5.40;99.90
41547;DHT22;27271;45.412;10.852;2023-03-01T21:26:58;5.40;99.90
41547;DHT22;27271;45.412;10.852;2023-03-01T21:30:20;5.50;85.50
41547;DHT22;27271;45.412;10.852;2023-03-01T21:33:48;5.40;99.90
41547;DHT22;27271;45.412;10.852;2023-03-01T21:37:10;5.50;98.30
41547;DHT22;27271;45.412;10.852;2023-03-01T21:40:33;5.60;35.00
41547;DHT22;27271;45.412;10.852;2023-03-01T21:43:58;5.60;64.60
41547;DHT22;27271;45.412;10.852;2023-03-01T21:47:23;5.60;1.00
41547;DHT22;27271;45.412;10.852;2023-03-01T21:50:53;5.70;19.40
41547;DHT22;27271;45.412;10.852;2023-03-01T21:54:16;5.70;1.00
41547;DHT22;27271;45.412;10.852;2023-03-01T21:57:40;5.80;1.00
41547;DHT22;27271;45.412;10.852;2023-03-01T22:01:07;5.80;1.00
41547;DHT22;27271;45.412;10.852;2023-03-01T22:04:30;5.80;1.00
41547;DHT22;27271;45.412;10.852;2023-03-01T22:07:52;5.90;1.00
41547;DHT22;27271;45.412;10.852;2023-03-01T22:11:15;6.00;1.00
41547;DHT22;27271;45.412;10.852;2023-03-01T22:14:39;6.00;1.00
41547;DHT22;27271;45.412;10.852;2023-03-01T22:18:01;6.00;1.00
41547;DHT22;27271;45.412;10.852;2023-03-01T22:21:23;6.10;99.90
41547;DHT22;27271;45.412;10.852;2023-03-01T22:24:45;6.10;99.90
41547;DHT22;27271;45.412;10.852;2023-03-01T22:28:07;6.10;99.90
41547;DHT22;27271;45.412;10.852;2023-03-01T22:31:30;6.10;99.90
41547;DHT22;27271;45.412;10.852;2023-03-01T22:34:52;6.10;99.90
41547;DHT22;27271;45.412;10.852;2023-03-01T22:38:14;6.10;1.00
41547;DHT22;27271;45.412;10.852;2023-03-01T22:41:41;6.10;1.00
41547;DHT22;27271;45.412;10.852;2023-03-01T22:45:06;6.10;99.90
41547;DHT22;27271;45.412;10.852;2023-03-01T22:48:28;6.20;99.90
41547;DHT22;27271;45.412;10.852;2023-03-01T22:51:50;6.20;99.90
41547;DHT22;27271;45.412;10.852;2023-03-01T22:55:12;6.20;99.90
41547;DHT22;27271;45.412;10.852;2023-03-01T22:58:34;6.20;99.90
41547;DHT22;27271;45.412;10.852;2023-03-01T23:01:56;6.10;99.90
41547;DHT22;27271;45.412;10.852;2023-03-01T23:05:19;6.10;1.00
41547;DHT22;27271;45.412;10.852;2023-03-01T23:08:42;6.10;1.00
41547;DHT22;27271;45.412;10.852;2023-03-01T23:12:04;6.00;1.00